Cartouche X — FFZP — position and weather

sailwx.info

Track history (hours):
 
Tides and Currents Weather Stations Pressure Air Temp Water Temp Dewpoint Dewpoint Depression Visibility Wind Speed Wind Dir Waves Ship Positions

Cartouche X

Last reported at 2014-Feb-14 13:03 UTC. Time now 2014-Jul-22 14:59 UTC.
Position N 18°09' W 063°15'.
Warning: this ship's position is months out of date.

Type: Sailing vessel. MMSI: 228002900.

Date/timePositionNaut miles runAvg speedWind from/ knotsBaromVisibWave heightAir tempDewpointWater temp
2014-Feb-14 13:03N 18°09' W 063°15'611.3
2014-Feb-14 12:33N 18°08' W 063°09'8 0.4
2014-Feb-13 16:33N 18°07' W 063°01'1111.2
2014-Feb-13 15:33N 17°58' W 062°55'5 4.6
2014-Feb-13 14:31N 17°54' W 062°52'0 0.0
2014-Feb-13 13:28N 17°54' W 062°52'0 0.0
2014-Feb-13 12:33N 17°54' W 062°52'0 0.0
2014-Feb-13 11:31N 17°54' W 062°52'0 0.0
2014-Feb-13 10:33N 17°54' W 062°52'0 0.0
2014-Feb-13 09:30N 17°54' W 062°52'0 0.0
2014-Feb-13 08:30N 17°54' W 062°52'0 0.0
2014-Feb-13 07:29N 17°54' W 062°52'0 0.0
2014-Feb-13 06:30N 17°54' W 062°52'0 0.0
2014-Feb-13 05:32N 17°54' W 062°52'0 0.0
2014-Feb-13 04:32N 17°54' W 062°52'0 0.0
2014-Feb-13 03:32N 17°54' W 062°52'0 0.0
2014-Feb-13 02:29N 17°54' W 062°52'0 0.0
2014-Feb-13 01:27N 17°54' W 062°52'0 0.0
2014-Feb-13 00:31N 17°54' W 062°52'0 0.0
2014-Feb-12 23:33N 17°54' W 062°52'0 0.0
2014-Feb-12 22:32N 17°54' W 062°52'0 0.0
2014-Feb-12 21:29N 17°54' W 062°52'1 0.9
2014-Feb-12 20:30N 17°54' W 062°51'2 2.0
2014-Feb-12 19:32N 17°55' W 062°52'0 0.0
2014-Feb-12 18:33N 17°55' W 062°52'0 0.4
2014-Feb-12 17:32N 17°55' W 062°53'9 9.1
2014-Feb-12 16:33N 17°47' W 062°49'9 9.3
2014-Feb-12 15:33N 17°38' W 062°46'  
Track history (hours):
 
Tides and Currents Weather Stations Pressure Air Temp Water Temp Dewpoint Dewpoint Depression Visibility Wind Speed Wind Dir Waves Ship Positions

Cartouche X

Last reported at 2014-Feb-14 13:03 UTC. Time now 2014-Jul-22 14:59 UTC.
Position N 18°09' W 063°15'.
Warning: this ship's position is months out of date.

Type: Sailing vessel. MMSI: 228002900.

Date/timePositionNaut miles runAvg speedWind from/ knotsBaromVisibWave heightAir tempDewpointWater temp
2014-Feb-14 13:03N 18°09' W 063°15'611.3
2014-Feb-14 12:33N 18°08' W 063°09'8 0.4
2014-Feb-13 16:33N 18°07' W 063°01'1111.2
2014-Feb-13 15:33N 17°58' W 062°55'5 4.6
2014-Feb-13 14:31N 17°54' W 062°52'0 0.0
2014-Feb-13 13:28N 17°54' W 062°52'0 0.0
2014-Feb-13 12:33N 17°54' W 062°52'0 0.0
2014-Feb-13 11:31N 17°54' W 062°52'0 0.0
2014-Feb-13 10:33N 17°54' W 062°52'0 0.0
2014-Feb-13 09:30N 17°54' W 062°52'0 0.0
2014-Feb-13 08:30N 17°54' W 062°52'0 0.0
2014-Feb-13 07:29N 17°54' W 062°52'0 0.0
2014-Feb-13 06:30N 17°54' W 062°52'0 0.0
2014-Feb-13 05:32N 17°54' W 062°52'0 0.0
2014-Feb-13 04:32N 17°54' W 062°52'0 0.0
2014-Feb-13 03:32N 17°54' W 062°52'0 0.0
2014-Feb-13 02:29N 17°54' W 062°52'0 0.0
2014-Feb-13 01:27N 17°54' W 062°52'0 0.0
2014-Feb-13 00:31N 17°54' W 062°52'0 0.0
2014-Feb-12 23:33N 17°54' W 062°52'0 0.0
2014-Feb-12 22:32N 17°54' W 062°52'0 0.0
2014-Feb-12 21:29N 17°54' W 062°52'1 0.9
2014-Feb-12 20:30N 17°54' W 062°51'2 2.0
2014-Feb-12 19:32N 17°55' W 062°52'0 0.0
2014-Feb-12 18:33N 17°55' W 062°52'0 0.4
2014-Feb-12 17:32N 17°55' W 062°53'9 9.1
2014-Feb-12 16:33N 17°47' W 062°49'9 9.3
2014-Feb-12 15:33N 17°38' W 062°46'  

Dump ship's entire track history